Time;durP1;ratioP1;P1;durP2;ratioP2;P2;SDS_P1;SDS_P2;PMS_P1;PMS_P2;Temp;Humidity;BMP_temperature;BMP_pressure;BME280_temperature;BME280_humidity;BME280_pressure;Samples;Min_cycle;Max_cycle;Signal;HPM_P1;HPM_P2
2022/09/02 00:01:18;;;;;;;1.08;0.85;;;15.60;99.90;;;;;;5000146;28;20023;-79
2022/09/02 00:03:45;;;;;;;2.90;1.00;;;15.50;99.90;;;;;;5017890;28;20066;-79
2022/09/02 00:06:11;;;;;;;4.15;1.25;;;15.50;99.90;;;;;;4997212;28;20030;-83
2022/09/02 00:08:38;;;;;;;7.70;1.00;;;15.50;99.90;;;;;;4996047;28;20198;-81
2022/09/02 00:11:06;;;;;;;2.40;0.90;;;15.50;99.90;;;;;;5014649;28;20025;-82
2022/09/02 00:13:34;;;;;;;2.20;1.20;;;15.50;99.90;;;;;;4999493;28;20022;-78
2022/09/02 00:16:00;;;;;;;2.78;1.17;;;15.50;99.90;;;;;;5015779;28;20030;-82
2022/09/02 00:18:26;;;;;;;3.20;1.00;;;15.40;99.90;;;;;;5018095;28;20026;-82
2022/09/02 00:20:53;;;;;;;1.77;1.00;;;15.40;99.90;;;;;;5001371;28;20026;-81
2022/09/02 00:23:19;;;;;;;2.53;0.95;;;15.40;99.90;;;;;;5001481;28;20038;-82
2022/09/02 00:25:45;;;;;;;1.95;1.13;;;15.40;99.90;;;;;;5018509;28;20010;-81
2022/09/02 00:28:13;;;;;;;2.47;1.05;;;15.40;99.90;;;;;;5018111;28;20028;-83
2022/09/02 00:30:40;;;;;;;1.88;1.00;;;15.30;99.90;;;;;;4985439;28;20049;-81
2022/09/02 00:33:06;;;;;;;2.38;0.88;;;15.30;99.90;;;;;;5001296;28;20022;-83
2022/09/02 00:35:33;;;;;;;3.50;1.20;;;15.30;99.90;;;;;;5001308;28;20023;-82
2022/09/02 00:37:59;;;;;;;2.45;1.10;;;15.30;99.90;;;;;;5017981;28;20044;-83
2022/09/02 00:40:26;;;;;;;4.25;1.13;;;15.30;99.90;;;;;;5018001;28;20042;-82
2022/09/02 00:42:52;;;;;;;4.05;0.95;;;15.20;99.90;;;;;;5017698;28;20106;-81
2022/09/02 00:45:20;;;;;;;4.47;1.10;;;15.20;99.90;;;;;;5000907;28;20030;-84
2022/09/02 00:47:49;;;;;;;2.45;1.00;;;15.20;99.90;;;;;;5018067;28;20043;-83
2022/09/02 00:50:19;;;;;;;4.53;0.98;;;15.20;99.90;;;;;;5000530;28;20028;-82
2022/09/02 00:52:49;;;;;;;2.67;1.20;;;15.20;99.90;;;;;;5017001;28;20504;-80
2022/09/02 00:55:24;;;;;;;5.82;1.20;;;15.20;99.90;;;;;;4995990;28;20077;-83
2022/09/02 00:58:02;;;;;;;3.58;1.10;;;15.20;99.90;;;;;;5017811;28;20031;-82
2022/09/02 01:00:33;;;;;;;4.85;1.10;;;15.20;99.90;;;;;;5001235;28;20033;-84
2022/09/02 01:03:04;;;;;;;3.88;0.98;;;15.10;99.90;;;;;;5018054;28;20025;-83
2022/09/02 01:05:38;;;;;;;4.18;1.30;;;15.10;99.90;;;;;;5017800;28;20015;-82
2022/09/02 01:08:08;;;;;;;4.18;1.05;;;15.10;99.90;;;;;;4994486;28;20047;-80
2022/09/02 01:10:34;;;;;;;4.40;1.38;;;15.10;99.90;;;;;;4988027;28;20045;-82
2022/09/02 01:13:10;;;;;;;3.33;1.20;;;15.00;99.90;;;;;;5011718;28;20030;-83
2022/09/02 01:15:40;;;;;;;5.90;1.15;;;15.10;99.90;;;;;;4997450;28;20046;-84
2022/09/02 01:18:08;;;;;;;3.08;1.27;;;15.00;99.90;;;;;;5002165;28;20026;-83
2022/09/02 01:20:34;;;;;;;2.13;1.23;;;15.00;99.90;;;;;;5020165;28;20027;-81
2022/09/02 01:23:01;;;;;;;2.15;1.17;;;15.00;99.90;;;;;;5018391;28;20045;-83
2022/09/02 01:25:30;;;;;;;3.25;1.00;;;15.00;99.90;;;;;;4998894;28;20027;-80
2022/09/02 01:28:02;;;;;;;3.85;1.15;;;14.90;99.90;;;;;;5015023;28;20036;-84
2022/09/02 01:30:29;;;;;;;1.67;1.08;;;14.90;99.90;;;;;;4998554;28;20178;-82
2022/09/02 01:32:55;;;;;;;5.88;1.02;;;14.90;99.90;;;;;;5016019;28;20045;-82
2022/09/02 01:35:21;;;;;;;6.05;1.20;;;14.90;99.90;;;;;;5015149;28;20040;-82
2022/09/02 01:37:47;;;;;;;1.85;1.17;;;14.90;99.90;;;;;;4999574;28;20022;-82
2022/09/02 01:40:16;;;;;;;1.90;1.30;;;14.80;99.90;;;;;;5016735;28;20030;-83
2022/09/02 01:42:44;;;;;;;2.15;1.10;;;14.80;99.90;;;;;;5001066;28;20030;-83
2022/09/02 01:45:10;;;;;;;2.17;1.10;;;14.80;99.90;;;;;;5000933;28;20038;-81
2022/09/02 01:47:36;;;;;;;2.47;1.10;;;14.80;99.90;;;;;;5016513;28;20030;-78
2022/09/02 01:50:06;;;;;;;3.58;1.30;;;14.80;99.90;;;;;;5019602;28;20026;-78
2022/09/02 01:52:32;;;;;;;5.70;1.98;;;14.80;99.90;;;;;;5003364;28;20028;-78
2022/09/02 01:54:59;;;;;;;3.33;1.35;;;14.80;99.90;;;;;;5003360;28;20022;-78
2022/09/02 01:57:25;;;;;;;1.60;0.90;;;14.70;99.90;;;;;;5020208;28;20044;-79
2022/09/02 01:59:53;;;;;;;2.40;1.30;;;14.70;99.90;;;;;;5002908;28;20027;-78
2022/09/02 02:02:19;;;;;;;2.90;1.40;;;14.70;99.90;;;;;;5003272;28;20086;-80
2022/09/02 02:04:49;;;;;;;3.45;1.30;;;14.70;99.90;;;;;;5019391;28;20035;-80
2022/09/02 02:07:17;;;;;;;4.80;1.35;;;14.70;99.90;;;;;;5018673;28;20022;-78
2022/09/02 02:09:43;;;;;;;4.78;1.15;;;14.70;99.90;;;;;;5019335;28;20002;-78
2022/09/02 02:12:14;;;;;;;2.22;1.10;;;14.70;99.90;;;;;;5003211;28;20026;-78
2022/09/02 02:14:40;;;;;;;3.00;1.48;;;14.60;99.90;;;;;;5020110;28;20033;-78
2022/09/02 02:17:06;;;;;;;1.92;1.10;;;14.60;99.90;;;;;;5003145;28;20073;-80
2022/09/02 02:19:34;;;;;;;3.10;1.20;;;14.60;99.90;;;;;;5019619;28;20015;-78
2022/09/02 02:22:01;;;;;;;2.90;1.10;;;14.60;99.90;;;;;;5002721;28;20015;-78
2022/09/02 02:24:27;;;;;;;4.78;1.25;;;14.60;99.90;;;;;;5017840;28;20061;-81
2022/09/02 02:26:53;;;;;;;1.77;1.00;;;14.60;99.90;;;;;;5018907;28;20019;-79
2022/09/02 02:29:20;;;;;;;1.98;0.90;;;14.60;99.90;;;;;;5024485;22;20088;-87
2022/09/02 02:31:47;;;;;;;4.18;1.10;;;14.60;99.90;;;;;;5026284;28;20036;-88
2022/09/02 02:34:13;;;;;;;4.07;1.45;;;14.50;99.90;;;;;;5025853;28;20030;-87
2022/09/02 02:36:40;;;;;;;2.45;1.30;;;14.50;99.90;;;;;;5034244;28;20072;-87
2022/09/02 02:39:08;;;;;;;2.00;1.30;;;14.50;99.90;;;;;;5039858;28;20025;-86
2022/09/02 02:41:35;;;;;;;3.03;1.25;;;14.50;99.90;;;;;;5039582;28;20018;-86
2022/09/02 02:44:02;;;;;;;3.40;1.55;;;14.40;99.90;;;;;;5039660;28;20078;-86
2022/09/02 02:46:30;;;;;;;4.80;1.38;;;14.40;99.90;;;;;;5039840;28;20014;-87
2022/09/02 02:49:00;;;;;;;1.35;1.05;;;14.40;99.90;;;;;;5039121;28;20030;-87
2022/09/02 02:51:27;;;;;;;3.78;1.10;;;14.40;99.90;;;;;;5039073;28;20037;-87
2022/09/02 02:53:53;;;;;;;3.83;1.33;;;14.30;99.90;;;;;;5038795;28;20022;-86
2022/09/02 02:56:19;;;;;;;5.93;1.80;;;14.30;99.90;;;;;;5039324;28;20057;-86
2022/09/02 02:58:45;;;;;;;2.25;1.13;;;14.40;99.90;;;;;;5038140;28;20029;-88
2022/09/02 03:01:11;;;;;;;4.20;1.20;;;14.30;99.90;;;;;;5034776;28;20069;-86
2022/09/02 03:03:37;;;;;;;3.95;1.40;;;14.30;99.90;;;;;;5031942;28;20037;-87
2022/09/02 03:06:03;;;;;;;1.95;1.17;;;14.30;99.90;;;;;;5033565;28;20046;-89
2022/09/02 03:08:29;;;;;;;4.72;1.30;;;14.30;99.90;;;;;;5033324;28;20029;-86
2022/09/02 03:10:56;;;;;;;3.60;1.60;;;14.30;99.90;;;;;;5028918;28;20030;-87
2022/09/02 03:13:26;;;;;;;4.72;1.85;;;14.30;99.90;;;;;;5013521;28;20209;-87
2022/09/02 03:15:52;;;;;;;2.90;1.30;;;14.20;99.90;;;;;;5031722;28;20100;-86
2022/09/02 03:18:20;;;;;;;3.63;1.45;;;14.20;99.90;;;;;;5026537;28;20033;-87
2022/09/02 03:20:48;;;;;;;3.78;1.33;;;14.20;99.90;;;;;;5033103;28;20029;-87
2022/09/02 03:23:14;;;;;;;3.38;1.10;;;14.20;99.90;;;;;;5034105;28;20022;-87
2022/09/02 03:25:45;;;;;;;4.43;1.80;;;14.20;99.90;;;;;;5049189;28;20101;-89
2022/09/02 03:28:22;;;;;;;12.00;1.60;;;14.10;99.90;;;;;;5033400;28;20037;-88
2022/09/02 03:30:48;;;;;;;4.72;1.23;;;14.10;99.90;;;;;;5035251;28;20033;-87
2022/09/02 03:33:16;;;;;;;4.15;1.60;;;14.10;99.90;;;;;;5028875;28;20037;-87
2022/09/02 03:35:43;;;;;;;2.78;1.40;;;14.10;99.90;;;;;;5027401;28;20026;-87
2022/09/02 03:38:11;;;;;;;2.15;1.27;;;14.00;99.90;;;;;;5024460;28;20026;-87
2022/09/02 03:40:38;;;;;;;3.55;1.30;;;14.00;99.90;;;;;;5030378;28;20049;-88
2022/09/02 03:43:06;;;;;;;6.93;1.77;;;14.00;99.90;;;;;;5035395;28;20102;-86
2022/09/02 03:45:32;;;;;;;4.78;1.55;;;14.00;99.90;;;;;;5015582;28;20409;-87
2022/09/02 03:48:03;;;;;;;6.63;1.92;;;14.00;99.90;;;;;;5025483;28;20093;-89
2022/09/02 03:50:36;;;;;;;6.32;1.50;;;13.90;99.90;;;;;;5026083;28;20030;-86
2022/09/02 03:53:04;;;;;;;4.30;1.30;;;14.00;99.90;;;;;;5031501;28;20016;-87
2022/09/02 03:55:30;;;;;;;5.53;1.30;;;13.90;99.90;;;;;;5030531;28;20459;-88
2022/09/02 03:57:57;;;;;;;9.55;1.40;;;13.90;99.90;;;;;;5025016;28;20038;-86
2022/09/02 04:00:30;;;;;;;1.48;1.00;;;13.90;99.90;;;;;;5031740;28;20052;-85
2022/09/02 04:03:01;;;;;;;3.40;1.52;;;13.90;99.90;;;;;;5026008;28;20044;-87
2022/09/02 04:05:28;;;;;;;4.25;1.50;;;13.90;99.90;;;;;;5024256;28;20053;-87
2022/09/02 04:07:56;;;;;;;7.35;1.50;;;13.90;99.90;;;;;;5026622;28;20049;-86
2022/09/02 04:10:23;;;;;;;2.92;1.30;;;13.80;99.90;;;;;;5026749;28;20478;-89
2022/09/02 04:12:50;;;;;;;8.25;1.60;;;13.90;99.90;;;;;;5026664;28;20029;-86
2022/09/02 04:15:18;;;;;;;5.68;1.38;;;13.90;99.90;;;;;;5026173;28;20026;-87
2022/09/02 04:17:44;;;;;;;3.42;1.52;;;13.90;99.90;;;;;;5027058;28;20030;-89
2022/09/02 04:20:13;;;;;;;3.78;1.63;;;13.80;99.90;;;;;;5026229;28;20200;-86
2022/09/02 04:22:40;;;;;;;8.60;2.17;;;13.80;99.90;;;;;;5027723;28;20029;-88
2022/09/02 04:25:07;;;;;;;4.40;1.83;;;13.80;99.90;;;;;;5026971;28;20045;-85
2022/09/02 04:27:34;;;;;;;6.07;1.40;;;13.80;99.90;;;;;;5011315;28;20026;-89
2022/09/02 04:30:00;;;;;;;5.60;1.70;;;13.80;99.90;;;;;;5027112;28;20030;-87
2022/09/02 04:32:28;;;;;;;4.45;1.70;;;13.80;99.90;;;;;;5028614;28;20093;-86
2022/09/02 04:34:54;;;;;;;2.92;1.65;;;13.80;99.90;;;;;;5029297;28;20038;-89
2022/09/02 04:37:21;;;;;;;3.92;1.52;;;13.70;99.90;;;;;;5012369;28;20022;-88
2022/09/02 04:39:47;;;;;;;4.72;1.88;;;13.70;99.90;;;;;;5026264;28;20034;-86
2022/09/02 04:42:13;;;;;;;5.45;1.80;;;13.70;99.90;;;;;;5027837;28;20072;-84
2022/09/02 04:44:40;;;;;;;7.15;1.95;;;13.70;99.90;;;;;;5015119;28;20042;-87
2022/09/02 04:47:07;;;;;;;7.93;1.80;;;13.70;99.90;;;;;;5026148;28;20066;-86
2022/09/02 04:49:33;;;;;;;3.47;1.50;;;13.80;99.90;;;;;;5025828;28;20044;-85
2022/09/02 04:51:59;;;;;;;12.25;2.10;;;13.70;99.90;;;;;;5027878;28;20018;-85
2022/09/02 04:54:27;;;;;;;7.47;2.17;;;13.80;99.90;;;;;;5030429;28;20417;-85
2022/09/02 04:56:57;;;;;;;12.68;2.08;;;13.80;99.90;;;;;;5034599;28;20056;-85
2022/09/02 04:59:24;;;;;;;7.03;2.15;;;13.80;99.90;;;;;;5038163;28;20042;-85
2022/09/02 05:01:59;;;;;;;8.70;1.95;;;13.80;99.90;;;;;;5038618;28;20709;-85
2022/09/02 05:04:27;;;;;;;7.68;2.08;;;13.80;99.90;;;;;;5038067;28;20301;-86
2022/09/02 05:06:53;;;;;;;6.95;1.90;;;13.80;99.90;;;;;;5036360;28;20030;-86
2022/09/02 05:09:20;;;;;;;8.98;2.10;;;13.80;99.90;;;;;;5018123;28;20033;-83
2022/09/02 05:11:57;;;;;;;11.27;3.03;;;13.80;99.90;;;;;;5036292;28;20033;-83
2022/09/02 05:14:26;;;;;;;11.20;2.63;;;13.90;99.90;;;;;;5039256;28;20026;-85
2022/09/02 05:16:53;;;;;;;12.45;2.05;;;13.90;99.90;;;;;;5039065;28;20337;-83
2022/09/02 05:19:22;;;;;;;8.38;2.08;;;13.90;99.90;;;;;;5037575;28;20022;-86
2022/09/02 05:21:52;;;;;;;18.75;2.30;;;13.90;99.90;;;;;;5034811;28;20032;-85
2022/09/02 05:24:27;;;;;;;14.15;2.35;;;13.90;99.90;;;;;;5036637;28;20080;-83
2022/09/02 05:26:56;;;;;;;16.05;2.72;;;14.00;99.90;;;;;;5033378;28;20022;-86
2022/09/02 05:29:24;;;;;;;18.38;2.60;;;14.10;99.90;;;;;;4981775;28;1397747;-88
2022/09/02 05:31:52;;;;;;;9.95;2.10;;;14.20;99.90;;;;;;5031516;28;20102;-84
2022/09/02 05:34:23;;;;;;;4.00;1.58;;;14.20;99.90;;;;;;5034295;28;20014;-85
2022/09/02 05:36:52;;;;;;;7.10;1.98;;;14.30;99.90;;;;;;5030460;28;20026;-83
2022/09/02 05:39:18;;;;;;;6.00;2.00;;;14.50;99.90;;;;;;5005965;28;20037;-86
2022/09/02 05:41:46;;;;;;;4.50;1.90;;;14.70;99.90;;;;;;5019175;28;20159;-85
2022/09/02 05:44:12;;;;;;;14.90;2.20;;;14.90;99.90;;;;;;5015986;28;20034;-85
2022/09/02 05:46:38;;;;;;;5.32;1.70;;;15.00;99.90;;;;;;5013509;28;20030;-85
2022/09/02 05:49:05;;;;;;;3.65;1.70;;;15.00;99.90;;;;;;5027952;28;20025;-85
2022/09/02 05:51:42;;;;;;;5.18;2.10;;;15.00;99.90;;;;;;5026065;28;20033;-87
2022/09/02 05:54:12;;;;;;;4.68;1.85;;;15.10;99.90;;;;;;5009035;28;20053;-86
2022/09/02 05:56:41;;;;;;;4.38;1.73;;;15.10;99.90;;;;;;5013016;28;20042;-84
2022/09/02 05:59:07;;;;;;;8.05;2.05;;;15.20;99.90;;;;;;5032058;28;20087;-83
2022/09/02 06:01:35;;;;;;;6.68;2.00;;;15.20;99.90;;;;;;5035336;28;20085;-83
2022/09/02 06:04:02;;;;;;;6.20;1.90;;;15.30;99.90;;;;;;5034864;28;20040;-86
2022/09/02 06:06:30;;;;;;;5.15;1.70;;;15.30;99.90;;;;;;5035037;28;20044;-83
2022/09/02 06:08:57;;;;;;;3.08;1.70;;;15.30;99.90;;;;;;5036627;28;20029;-84
2022/09/02 06:11:24;;;;;;;8.82;1.90;;;15.40;99.90;;;;;;5031993;28;20034;-83
2022/09/02 06:13:54;;;;;;;6.70;2.08;;;15.50;99.90;;;;;;5026304;28;20029;-85
2022/09/02 06:16:22;;;;;;;7.85;1.90;;;15.60;99.90;;;;;;5008524;28;20030;-83
2022/09/02 06:18:49;;;;;;;3.15;1.45;;;15.70;99.90;;;;;;5006882;28;20038;-83
2022/09/02 06:21:15;;;;;;;5.60;1.85;;;15.70;99.90;;;;;;5006887;28;20042;-84
2022/09/02 06:23:46;;;;;;;4.38;1.75;;;15.80;99.90;;;;;;5023043;28;20037;-85
2022/09/02 06:26:14;;;;;;;4.90;1.85;;;15.80;99.90;;;;;;5031897;28;20022;-85
2022/09/02 06:28:40;;;;;;;4.50;1.88;;;15.90;99.90;;;;;;5029407;28;20053;-85
2022/09/02 06:31:11;;;;;;;5.65;1.75;;;16.00;99.90;;;;;;5026708;28;20034;-85
2022/09/02 06:33:38;;;;;;;5.25;1.70;;;16.10;99.90;;;;;;5015078;28;20061;-85
2022/09/02 06:36:09;;;;;;;5.97;1.75;;;16.10;99.90;;;;;;5009649;28;20470;-86
2022/09/02 06:38:37;;;;;;;5.00;1.88;;;16.20;99.90;;;;;;5009494;28;20029;-84
2022/09/02 06:41:03;;;;;;;6.40;2.05;;;16.20;99.90;;;;;;5024421;28;20188;-86
2022/09/02 06:43:36;;;;;;;3.70;2.30;;;16.30;99.90;;;;;;5030699;28;20026;-84
2022/09/02 06:46:15;;;;;;;4.05;1.45;;;16.30;99.90;;;;;;5028758;28;20088;-86
2022/09/02 06:48:41;;;;;;;2.97;1.75;;;16.30;99.90;;;;;;5028455;28;20030;-86
2022/09/02 06:51:07;;;;;;;4.38;1.70;;;16.40;99.90;;;;;;5026743;28;20060;-85
2022/09/02 06:53:34;;;;;;;3.75;1.80;;;16.40;99.90;;;;;;5026386;28;20026;-86
2022/09/02 06:56:00;;;;;;;6.22;1.95;;;16.40;99.90;;;;;;5025304;28;20026;-85
2022/09/02 06:58:26;;;;;;;5.72;1.90;;;16.50;99.90;;;;;;5023398;28;20097;-84
2022/09/02 07:00:52;;;;;;;3.67;1.60;;;16.60;99.90;;;;;;5023700;28;20037;-86
2022/09/02 07:06:24;;;;;;;3.20;1.90;;;16.60;99.90;;;;;;4985529;28;20034;-84
2022/09/02 07:08:51;;;;;;;10.20;2.03;;;16.70;99.90;;;;;;4985258;28;20058;-88
2022/09/02 07:11:22;;;;;;;5.90;2.10;;;16.70;99.90;;;;;;4995971;28;20070;-85
2022/09/02 07:13:50;;;;;;;4.57;2.08;;;16.80;99.90;;;;;;5025311;28;20068;-88
2022/09/02 07:16:18;;;;;;;4.25;1.67;;;16.80;99.90;;;;;;5024312;28;20036;-87
2022/09/02 07:18:44;;;;;;;5.80;1.80;;;17.00;99.90;;;;;;5015368;28;20052;-83
2022/09/02 07:21:12;;;;;;;5.75;1.75;;;17.10;99.90;;;;;;5002440;28;20022;-88
2022/09/02 07:23:41;;;;;;;4.85;2.25;;;17.10;99.90;;;;;;5005973;28;20398;-85
2022/09/02 07:26:15;;;;;;;4.65;2.03;;;17.10;99.90;;;;;;5005319;28;20033;-87
2022/09/02 07:28:44;;;;;;;4.55;1.80;;;17.10;99.90;;;;;;5006557;28;20029;-87
2022/09/02 07:31:14;;;;;;;16.55;4.25;;;17.10;99.90;;;;;;5009235;28;20031;-86
2022/09/02 07:33:43;;;;;;;8.07;2.85;;;17.20;99.90;;;;;;5023331;28;20017;-83
2022/09/02 07:36:10;;;;;;;10.30;2.85;;;17.30;99.90;;;;;;5045150;28;20061;-85
2022/09/02 07:38:39;;;;;;;6.70;2.20;;;17.40;99.90;;;;;;5029235;28;20030;-85
2022/09/02 07:41:06;;;;;;;6.30;1.63;;;17.50;99.90;;;;;;5027260;28;20101;-86
2022/09/02 07:43:34;;;;;;;8.52;2.03;;;17.60;99.90;;;;;;5024705;28;20025;-82
2022/09/02 07:46:02;;;;;;;8.02;2.38;;;17.70;99.90;;;;;;5026143;28;20029;-84
2022/09/02 07:48:30;;;;;;;7.82;1.73;;;17.80;99.90;;;;;;5030573;28;20022;-86
2022/09/02 07:50:59;;;;;;;6.20;1.90;;;17.80;99.90;;;;;;5034062;28;20046;-87
2022/09/02 07:53:28;;;;;;;6.93;2.45;;;17.90;99.90;;;;;;5029352;28;20026;-88
2022/09/02 07:55:56;;;;;;;7.30;2.22;;;17.90;99.90;;;;;;5027699;28;20378;-87
2022/09/02 07:58:23;;;;;;;4.20;2.45;;;17.90;99.90;;;;;;5007017;28;20474;-85
2022/09/02 08:02:35;;;;;;;;;;;;;;;;;;;;;
2022/09/02 08:09:42;;;;;;;5.55;1.95;;;18.30;99.90;;;;;;4939993;29;20070;-86
2022/09/02 08:13:26;;;;;;;3.33;1.80;;;18.60;99.90;;;;;;4909437;29;20111;-86
2022/09/02 08:21:06;;;;;;;;;;;;;;;;;;;;;
2022/09/02 08:28:51;;;;;;;;;;;;;;;;;;;;;
2022/09/02 08:31:37;;;;;;;4.80;1.50;;;19.00;99.90;;;;;;5037078;22;20109;-82
2022/09/02 08:34:03;;;;;;;4.47;1.38;;;19.10;99.90;;;;;;5029618;28;20033;-83
2022/09/02 08:36:29;;;;;;;5.80;1.85;;;19.20;99.90;;;;;;5029544;28;20106;-83
2022/09/02 08:38:56;;;;;;;6.20;1.80;;;19.20;99.70;;;;;;5028528;28;20030;-83
2022/09/02 08:41:41;;;;;;;8.57;1.77;;;19.10;99.30;;;;;;5023176;28;20030;-84
2022/09/02 08:44:09;;;;;;;7.45;1.80;;;19.20;99.60;;;;;;5022946;28;20038;-82
2022/09/02 08:46:36;;;;;;;3.80;1.83;;;19.30;98.90;;;;;;5029130;28;20010;-82
2022/09/02 08:49:12;;;;;;;3.10;1.50;;;19.50;99.20;;;;;;5035498;28;20086;-83
2022/09/02 08:51:51;;;;;;;7.85;2.20;;;19.90;98.40;;;;;;5036215;28;20098;-81
2022/09/02 08:54:33;;;;;;;8.27;1.70;;;20.10;97.70;;;;;;5019204;28;20094;-80
2022/09/02 08:56:59;;;;;;;4.25;2.65;;;20.20;97.40;;;;;;5035775;28;20235;-82
2022/09/02 08:59:29;;;;;;;3.25;1.90;;;20.30;97.40;;;;;;5028940;28;20029;-84
2022/09/02 09:02:16;;;;;;;5.07;1.55;;;20.50;97.00;;;;;;5021040;28;20036;-83
2022/09/02 09:05:19;;;;;;;2.88;1.90;;;20.40;96.00;;;;;;5002748;28;20045;-84
2022/09/02 09:08:15;;;;;;;3.65;1.70;;;20.40;96.50;;;;;;5021661;28;20334;-83
2022/09/02 09:11:00;;;;;;;9.40;2.15;;;20.80;95.90;;;;;;5029210;28;20098;-82
2022/09/02 09:14:28;;;;;;;7.53;1.60;;;21.30;95.00;;;;;;5022099;28;20061;-83
2022/09/02 09:17:12;;;;;;;4.88;1.40;;;21.90;93.80;;;;;;4934650;29;20040;-83
2022/09/02 09:19:52;;;;;;;2.53;1.30;;;22.80;92.80;;;;;;4950954;29;20181;-82
2022/09/02 09:22:25;;;;;;;3.20;1.48;;;23.00;92.30;;;;;;5017261;28;20609;-82
2022/09/02 09:24:51;;;;;;;3.60;1.38;;;23.50;90.80;;;;;;5027384;28;20071;-81
2022/09/02 09:27:20;;;;;;;3.67;1.58;;;23.70;89.00;;;;;;5031801;28;20034;-82
2022/09/02 09:29:47;;;;;;;5.20;1.67;;;24.30;87.50;;;;;;5023336;28;20030;-82
2022/09/02 09:32:33;;;;;;;1.73;1.33;;;25.00;85.80;;;;;;5021144;28;20034;-81
2022/09/02 09:35:11;;;;;;;2.58;1.52;;;25.80;83.20;;;;;;5021538;28;20030;-82
2022/09/02 09:37:38;;;;;;;12.07;7.03;;;26.00;81.20;;;;;;5022075;28;20100;-82
2022/09/02 09:40:22;;;;;;;5.70;1.85;;;25.70;80.00;;;;;;5006177;28;20022;-84
2022/09/02 09:43:09;;;;;;;5.15;1.58;;;25.50;80.30;;;;;;5023749;28;20117;-82
2022/09/02 09:45:50;;;;;;;4.40;1.60;;;26.20;78.80;;;;;;5024361;28;20026;-82
2022/09/02 09:48:16;;;;;;;4.68;1.45;;;26.50;76.00;;;;;;5024219;28;20045;-84
2022/09/02 09:50:43;;;;;;;4.32;1.40;;;26.80;76.40;;;;;;5025433;28;20025;-82
2022/09/02 09:53:13;;;;;;;6.68;1.90;;;27.70;75.00;;;;;;5024524;28;20116;-83
2022/09/02 09:56:09;;;;;;;5.32;1.65;;;28.80;72.60;;;;;;5024622;28;20050;-84
2022/09/02 09:58:35;;;;;;;3.67;1.58;;;29.50;70.20;;;;;;5022576;28;20061;-83
2022/09/02 10:01:15;;;;;;;3.92;1.17;;;30.20;67.70;;;;;;5024394;28;20026;-83
2022/09/02 10:04:09;;;;;;;2.47;1.50;;;30.70;65.50;;;;;;5026070;28;20030;-82
2022/09/02 10:06:41;;;;;;;7.10;1.67;;;31.10;64.20;;;;;;5025053;28;20038;-82
2022/09/02 10:09:13;;;;;;;3.55;1.30;;;31.70;62.40;;;;;;5007062;28;20034;-83
2022/09/02 10:11:53;;;;;;;2.47;1.30;;;31.50;61.40;;;;;;5024684;28;20045;-84
2022/09/02 10:14:19;;;;;;;7.15;1.38;;;31.50;60.60;;;;;;5016109;28;20081;-81
2022/09/02 10:17:02;;;;;;;2.75;1.10;;;32.10;60.10;;;;;;5034833;28;20028;-85
2022/09/02 10:19:51;;;;;;;3.08;1.38;;;32.40;57.10;;;;;;5009696;28;20033;-85
2022/09/02 10:22:33;;;;;;;3.08;1.25;;;32.90;56.20;;;;;;5026690;28;20030;-83
2022/09/02 10:25:24;;;;;;;1.40;1.13;;;34.50;53.60;;;;;;5024391;28;20029;-84
2022/09/02 10:28:32;;;;;;;2.22;1.15;;;34.90;51.60;;;;;;5035393;28;20038;-84
2022/09/02 10:31:01;;;;;;;1.38;1.00;;;35.30;51.10;;;;;;4980903;28;20046;-83
2022/09/02 10:33:49;;;;;;;3.10;1.00;;;35.80;48.50;;;;;;5025223;28;20033;-86
2022/09/02 10:36:27;;;;;;;1.95;0.98;;;34.60;49.00;;;;;;5025481;28;20030;-83
2022/09/02 10:38:59;;;;;;;3.03;1.45;;;34.50;49.50;;;;;;5026198;28;20172;-84
2022/09/02 10:41:30;;;;;;;2.75;1.20;;;34.60;49.60;;;;;;5025616;28;20052;-82
2022/09/02 10:43:59;;;;;;;2.08;1.50;;;35.60;48.80;;;;;;5035739;28;20028;-83
2022/09/02 10:46:29;;;;;;;3.05;1.20;;;36.10;47.90;;;;;;5025662;28;20033;-83
2022/09/02 10:49:10;;;;;;;1.85;1.05;;;37.30;47.40;;;;;;5025475;28;20045;-84
2022/09/02 10:52:06;;;;;;;2.47;1.38;;;37.10;46.80;;;;;;5030087;28;20034;-82
2022/09/02 10:54:43;;;;;;;4.43;1.20;;;37.10;45.90;;;;;;5036107;28;20014;-82
2022/09/02 10:57:25;;;;;;;1.52;1.00;;;36.40;45.30;;;;;;5035693;28;20022;-82
2022/09/02 11:00:08;;;;;;;2.15;1.05;;;35.60;45.80;;;;;;5034652;28;20034;-84
2022/09/02 11:03:04;;;;;;;3.80;1.20;;;35.90;45.70;;;;;;5034346;28;20028;-84
2022/09/02 11:05:57;;;;;;;3.83;1.23;;;37.20;44.80;;;;;;5033692;28;20056;-82
2022/09/02 11:08:38;;;;;;;2.67;1.00;;;37.80;44.40;;;;;;5032228;28;20026;-83
2022/09/02 11:11:21;;;;;;;3.38;0.98;;;38.30;43.80;;;;;;5028630;28;20080;-84
2022/09/02 11:14:04;;;;;;;3.20;1.27;;;37.80;43.40;;;;;;5022968;28;20033;-83
2022/09/02 11:17:22;;;;;;;2.65;1.20;;;37.30;43.60;;;;;;5022472;28;20134;-85
2022/09/02 11:19:55;;;;;;;2.38;1.23;;;36.60;44.10;;;;;;5018138;28;20048;-82
2022/09/02 11:22:27;;;;;;;2.80;1.10;;;36.90;44.30;;;;;;5023589;28;20037;-83
2022/09/02 11:25:07;;;;;;;4.35;1.40;;;37.30;43.40;;;;;;5023326;28;20037;-83
2022/09/02 11:27:45;;;;;;;1.73;1.20;;;37.30;43.60;;;;;;5023571;28;20026;-83
2022/09/02 11:30:22;;;;;;;2.38;1.20;;;37.70;43.00;;;;;;5022127;28;20034;-82
2022/09/02 11:33:25;;;;;;;4.53;1.10;;;39.20;42.30;;;;;;5025483;28;20037;-83
2022/09/02 11:35:51;;;;;;;3.97;1.08;;;39.40;41.90;;;;;;4983236;28;20450;-83
2022/09/02 11:38:41;;;;;;;4.63;1.00;;;39.70;41.70;;;;;;5026476;28;20041;-83
2022/09/02 11:41:32;;;;;;;2.47;1.20;;;39.10;41.80;;;;;;5028712;28;20034;-84
2022/09/02 11:44:33;;;;;;;1.75;1.40;;;38.90;42.00;;;;;;5030458;28;20049;-82
2022/09/02 11:47:24;;;;;;;3.33;1.05;;;38.10;42.20;;;;;;5004872;28;20042;-83
2022/09/02 11:50:24;;;;;;;3.25;1.02;;;35.60;43.30;;;;;;5021689;28;20467;-83
2022/09/02 11:53:34;;;;;;;4.10;1.23;;;35.40;43.80;;;;;;5020938;28;20090;-83
2022/09/02 11:56:06;;;;;;;2.05;1.20;;;37.00;43.30;;;;;;5021809;28;20447;-83
2022/09/02 11:58:52;;;;;;;2.70;1.00;;;38.40;42.50;;;;;;5024173;28;20026;-83
2022/09/02 12:01:24;;;;;;;3.33;1.20;;;39.40;41.70;;;;;;5033581;28;20129;-83
2022/09/02 12:03:57;;;;;;;2.47;1.20;;;40.20;41.10;;;;;;5024899;28;20038;-83
2022/09/02 12:06:24;;;;;;;;;;;40.30;41.30;;;;;;5026343;28;20033;-84
2022/09/02 12:08:50;;;;;;;2.28;1.30;;;39.90;40.70;;;;;;5004971;28;19956;-82
2022/09/02 12:11:40;;;;;;;2.13;1.40;;;39.00;40.40;;;;;;5021397;28;20026;-84
2022/09/02 12:14:33;;;;;;;2.67;1.30;;;37.90;41.50;;;;;;5021519;28;20125;-83
2022/09/02 12:17:07;;;;;;;3.60;1.40;;;38.10;41.30;;;;;;4986313;28;20120;-84
2022/09/02 12:19:44;;;;;;;3.35;1.20;;;39.00;40.90;;;;;;5004404;28;20080;-84
2022/09/02 12:22:15;;;;;;;2.25;1.08;;;40.10;40.30;;;;;;5005664;28;20052;-83
2022/09/02 12:24:51;;;;;;;2.10;1.00;;;41.00;39.70;;;;;;5022003;28;20094;-84
2022/09/02 12:27:37;;;;;;;1.95;1.20;;;40.90;39.40;;;;;;5025784;28;20026;-85
2022/09/02 12:30:06;;;;;;;5.95;1.45;;;41.20;39.70;;;;;;5026386;28;20060;-85
2022/09/02 12:32:54;;;;;;;3.05;1.20;;;40.60;39.60;;;;;;5006184;28;20124;-83
2022/09/02 12:35:40;;;;;;;2.78;1.20;;;39.90;39.70;;;;;;5021691;28;20344;-84
2022/09/02 12:38:08;;;;;;;2.08;1.35;;;39.60;40.00;;;;;;5021431;28;20037;-84
2022/09/02 12:40:40;;;;;;;1.33;1.08;;;39.40;40.00;;;;;;5022899;28;20053;-83
2022/09/02 12:43:24;;;;;;;1.90;1.17;;;40.20;39.80;;;;;;5022257;28;20460;-82
2022/09/02 12:45:52;;;;;;;;;;;40.90;39.80;;;;;;5022722;28;20034;-84
2022/09/02 12:48:26;;;;;;;2.38;1.27;;;40.50;39.40;;;;;;5023293;28;20421;-84
2022/09/02 12:50:56;;;;;;;2.95;1.20;;;39.50;39.90;;;;;;5022062;28;20022;-84
2022/09/02 12:53:41;;;;;;;3.55;1.48;;;39.10;40.00;;;;;;5022193;28;20030;-82
2022/09/02 12:56:22;;;;;;;2.50;1.15;;;39.10;40.10;;;;;;5022499;28;20037;-83
2022/09/02 12:58:52;;;;;;;2.90;1.40;;;40.70;39.40;;;;;;5005949;28;20034;-83
2022/09/02 13:01:50;;;;;;;4.18;1.23;;;38.90;39.10;;;;;;5031815;28;20061;-82
2022/09/02 13:05:05;;;;;;;4.35;1.15;;;38.50;40.10;;;;;;5014451;28;20014;-83
2022/09/02 13:07:39;;;;;;;3.10;1.17;;;37.50;40.70;;;;;;4944345;29;20036;-83
2022/09/02 13:10:11;;;;;;;8.27;1.30;;;36.70;40.60;;;;;;5022108;28;20041;-80
2022/09/02 13:13:04;;;;;;;4.80;1.25;;;37.20;40.80;;;;;;5036365;28;20040;-81
2022/09/02 13:15:48;;;;;;;2.15;1.35;;;36.70;41.00;;;;;;5002820;28;20037;-83
2022/09/02 13:18:38;;;;;;;5.53;1.42;;;37.50;41.30;;;;;;5036769;28;20037;-85
2022/09/02 13:21:19;;;;;;;2.00;1.30;;;38.40;40.70;;;;;;5033916;28;20061;-84
2022/09/02 13:24:10;;;;;;;5.50;1.10;;;38.50;41.10;;;;;;5032870;28;20033;-83
2022/09/02 13:26:58;;;;;;;5.43;1.27;;;39.30;40.00;;;;;;5028380;28;20402;-84
2022/09/02 13:29:46;;;;;;;3.33;1.55;;;39.90;39.70;;;;;;5029628;28;20036;-82
2022/09/02 13:32:21;;;;;;;3.47;1.17;;;39.90;39.60;;;;;;5039016;28;20086;-81
2022/09/02 13:34:49;;;;;;;2.67;1.33;;;40.50;39.30;;;;;;5039531;28;20038;-84
2022/09/02 13:37:39;;;;;;;2.50;1.30;;;41.20;39.20;;;;;;5039147;28;20042;-83
2022/09/02 13:40:18;;;;;;;3.80;1.30;;;41.60;38.70;;;;;;5038451;28;20224;-84